Time;durP1;ratioP1;P1;durP2;ratioP2;P2;SDS_P1;SDS_P2;PMS_P1;PMS_P2;Temp;Humidity;BMP_temperature;BMP_pressure;BME280_temperature;BME280_humidity;BME280_pressure;Samples;Min_cycle;Max_cycle;Signal;HPM_P1;HPM_P2
2021/05/03 00:01:37;;;;;;;8.73;4.60;;;;;;;;;;5030687;28;20416;-85
2021/05/03 00:04:03;;;;;;;8.75;4.35;;;;;;;;;;5030905;28;20366;-86
2021/05/03 00:06:29;;;;;;;8.38;4.55;;;;;;;;;;5031980;28;20378;-86
2021/05/03 00:08:58;;;;;;;8.10;4.43;;;;;;;;;;5031842;28;20875;-85
2021/05/03 00:11:24;;;;;;;6.57;3.88;;;;;;;;;;5030955;28;20369;-86
2021/05/03 00:13:54;;;;;;;8.00;4.40;;;;;;;;;;5032189;28;20370;-84
2021/05/03 00:16:22;;;;;;;8.55;4.30;;;;;;;;;;5029285;28;20374;-85
2021/05/03 00:18:48;;;;;;;5.68;3.58;;;;;;;;;;5030710;28;20358;-84
2021/05/03 00:21:15;;;;;;;8.43;4.23;;;;;;;;;;5030563;28;20886;-85
2021/05/03 00:23:41;;;;;;;5.07;3.78;;;;;;;;;;5029697;28;20892;-84
2021/05/03 00:26:11;;;;;;;5.25;3.80;;;;;;;;;;5028819;28;21013;-84
2021/05/03 00:28:37;;;;;;;6.10;4.10;;;;;;;;;;5028757;28;20408;-84
2021/05/03 00:31:03;;;;;;;8.90;3.72;;;;;;;;;;5028420;28;20720;-86
2021/05/03 00:33:29;;;;;;;6.73;3.80;;;;;;;;;;5029870;28;20361;-85
2021/05/03 00:35:55;;;;;;;8.27;4.00;;;;;;;;;;5028258;28;20412;-86
2021/05/03 00:38:21;;;;;;;6.57;4.00;;;;;;;;;;5024553;28;20385;-86
2021/05/03 00:40:47;;;;;;;6.63;3.67;;;;;;;;;;5012188;28;20441;-84
2021/05/03 00:43:18;;;;;;;7.57;3.80;;;;;;;;;;5013352;28;20367;-84
2021/05/03 00:45:44;;;;;;;7.15;4.07;;;;;;;;;;5013805;28;20375;-84
2021/05/03 00:48:10;;;;;;;5.53;3.65;;;;;;;;;;5013645;28;20394;-85
2021/05/03 00:50:37;;;;;;;7.88;4.07;;;;;;;;;;5013613;28;20368;-84
2021/05/03 00:53:04;;;;;;;6.50;3.50;;;;;;;;;;5012937;28;20375;-85
2021/05/03 00:55:30;;;;;;;6.95;3.90;;;;;;;;;;5012129;28;20359;-84
2021/05/03 00:57:56;;;;;;;8.80;4.07;;;;;;;;;;5013392;28;20492;-85
2021/05/03 01:00:24;;;;;;;8.50;3.92;;;;;;;;;;5013489;28;20375;-86
2021/05/03 01:02:51;;;;;;;8.85;4.00;;;;;;;;;;5013324;28;20371;-84
2021/05/03 01:05:17;;;;;;;8.52;3.70;;;;;;;;;;5012256;28;20911;-84
2021/05/03 01:07:43;;;;;;;7.72;3.90;;;;;;;;;;5011972;28;20399;-84
2021/05/03 01:10:09;;;;;;;9.30;3.80;;;;;;;;;;5012025;28;20905;-83
2021/05/03 01:12:37;;;;;;;7.30;4.32;;;;;;;;;;5012884;28;20371;-84
2021/05/03 01:15:04;;;;;;;10.75;4.25;;;;;;;;;;5013060;28;20367;-84
2021/05/03 01:17:33;;;;;;;7.03;4.03;;;;;;;;;;5011675;28;20380;-83
2021/05/03 01:20:06;;;;;;;7.35;4.53;;;;;;;;;;5011540;28;20433;-84
2021/05/03 01:22:35;;;;;;;7.03;5.18;;;;;;;;;;5012513;28;20407;-85
2021/05/03 01:25:02;;;;;;;9.37;5.00;;;;;;;;;;5013038;28;20378;-84
2021/05/03 01:27:28;;;;;;;7.65;4.68;;;;;;;;;;5011670;28;20399;-84
2021/05/03 01:29:54;;;;;;;8.38;5.55;;;;;;;;;;5012910;28;20364;-83
2021/05/03 01:32:20;;;;;;;9.23;5.03;;;;;;;;;;5012650;28;20363;-84
2021/05/03 01:34:46;;;;;;;8.93;5.13;;;;;;;;;;5011102;28;20387;-83
2021/05/03 01:37:15;;;;;;;9.32;4.95;;;;;;;;;;5011521;28;20414;-84
2021/05/03 01:39:41;;;;;;;9.25;5.00;;;;;;;;;;5027803;28;20385;-86
2021/05/03 01:42:07;;;;;;;8.95;5.15;;;;;;;;;;5031044;28;20378;-84
2021/05/03 01:44:34;;;;;;;8.85;4.93;;;;;;;;;;5031085;28;20369;-85
2021/05/03 01:47:00;;;;;;;9.88;5.40;;;;;;;;;;5032519;28;20390;-86
2021/05/03 01:49:29;;;;;;;8.68;5.20;;;;;;;;;;5030493;28;20847;-85
2021/05/03 01:51:55;;;;;;;7.63;4.63;;;;;;;;;;5030950;28;20453;-87
2021/05/03 01:54:22;;;;;;;7.93;5.35;;;;;;;;;;5032334;28;20366;-88
2021/05/03 01:56:48;;;;;;;8.57;5.57;;;;;;;;;;5032524;28;20420;-87
2021/05/03 01:59:14;;;;;;;8.82;5.55;;;;;;;;;;5032347;28;20405;-88
2021/05/03 02:01:40;;;;;;;10.00;5.50;;;;;;;;;;5030431;28;21120;-85
2021/05/03 02:04:07;;;;;;;9.50;5.90;;;;;;;;;;5032017;28;20380;-83
2021/05/03 02:06:33;;;;;;;9.85;5.90;;;;;;;;;;5031744;28;20361;-83
2021/05/03 02:09:04;;;;;;;10.30;6.32;;;;;;;;;;5032119;28;20401;-85
2021/05/03 02:11:30;;;;;;;8.00;5.63;;;;;;;;;;5031601;28;20384;-84
2021/05/03 02:13:56;;;;;;;9.68;6.38;;;;;;;;;;5031296;28;20867;-85
2021/05/03 02:16:22;;;;;;;10.55;6.50;;;;;;;;;;5030707;28;20374;-84
2021/05/03 02:18:48;;;;;;;9.70;6.28;;;;;;;;;;5030937;28;20380;-85
2021/05/03 02:21:14;;;;;;;10.38;7.00;;;;;;;;;;5031866;28;20977;-88
2021/05/03 02:23:40;;;;;;;7.93;6.73;;;;;;;;;;5030574;28;20551;-87
2021/05/03 02:26:06;;;;;;;9.90;6.87;;;;;;;;;;5030565;28;20381;-84
2021/05/03 02:28:32;;;;;;;9.82;6.50;;;;;;;;;;5031377;28;20512;-84
2021/05/03 02:30:58;;;;;;;8.80;6.90;;;;;;;;;;5029766;28;20420;-86
2021/05/03 02:33:24;;;;;;;10.02;7.10;;;;;;;;;;5031619;28;20361;-83
2021/05/03 02:35:50;;;;;;;10.30;6.30;;;;;;;;;;5031206;28;20381;-88
2021/05/03 02:38:16;;;;;;;12.95;6.75;;;;;;;;;;5027594;28;20363;-86
2021/05/03 02:40:42;;;;;;;10.67;6.50;;;;;;;;;;5011429;28;20745;-85
2021/05/03 02:43:08;;;;;;;10.50;6.03;;;;;;;;;;5011772;28;20372;-84
2021/05/03 02:45:35;;;;;;;10.02;6.45;;;;;;;;;;5011736;28;20367;-84
2021/05/03 02:48:01;;;;;;;10.80;6.07;;;;;;;;;;5010384;28;21209;-86
2021/05/03 02:50:28;;;;;;;8.80;5.70;;;;;;;;;;5011563;28;20469;-84
2021/05/03 02:52:54;;;;;;;6.57;5.70;;;;;;;;;;5009939;28;20367;-84
2021/05/03 02:55:20;;;;;;;6.72;5.68;;;;;;;;;;5011349;28;20371;-86
2021/05/03 02:57:47;;;;;;;9.52;6.20;;;;;;;;;;5011295;28;20367;-84
2021/05/03 03:00:15;;;;;;;10.40;6.35;;;;;;;;;;5011637;28;20379;-88
2021/05/03 03:02:41;;;;;;;8.75;5.38;;;;;;;;;;5010707;28;20469;-86
2021/05/03 03:05:07;;;;;;;10.30;6.30;;;;;;;;;;5011254;28;20371;-87
2021/05/03 03:07:33;;;;;;;7.90;5.80;;;;;;;;;;5011302;28;20449;-85
2021/05/03 03:09:59;;;;;;;11.15;6.68;;;;;;;;;;5011150;28;20367;-84
2021/05/03 03:12:25;;;;;;;9.77;6.38;;;;;;;;;;5010401;28;21162;-85
2021/05/03 03:14:51;;;;;;;10.25;6.63;;;;;;;;;;5010815;28;20380;-85
2021/05/03 03:17:17;;;;;;;8.68;6.22;;;;;;;;;;5011320;28;20379;-88
2021/05/03 03:19:43;;;;;;;8.02;5.72;;;;;;;;;;5011173;28;20381;-86
2021/05/03 03:22:10;;;;;;;8.80;6.18;;;;;;;;;;5010877;28;20837;-89
2021/05/03 03:24:36;;;;;;;8.43;6.18;;;;;;;;;;5016025;28;20371;-85
2021/05/03 03:27:03;;;;;;;8.15;6.32;;;;;;;;;;5014865;28;20394;-83
2021/05/03 03:29:29;;;;;;;8.82;6.20;;;;;;;;;;5011653;28;20894;-86
2021/05/03 03:31:55;;;;;;;8.80;5.88;;;;;;;;;;5009177;28;20372;-84
2021/05/03 03:34:21;;;;;;;7.95;5.75;;;;;;;;;;5011533;28;20905;-86
2021/05/03 03:36:47;;;;;;;7.22;5.93;;;;;;;;;;5010788;28;20446;-84
2021/05/03 03:39:14;;;;;;;8.27;6.07;;;;;;;;;;5021259;28;20396;-87
2021/05/03 03:41:39;;;;;;;8.65;5.90;;;;;;;;;;5030131;28;20994;-86
2021/05/03 03:44:06;;;;;;;10.18;6.07;;;;;;;;;;5030553;28;20448;-84
2021/05/03 03:46:32;;;;;;;10.05;6.38;;;;;;;;;;5030356;28;20361;-86
2021/05/03 03:48:58;;;;;;;11.43;6.20;;;;;;;;;;5030666;28;20735;-83
2021/05/03 03:51:24;;;;;;;9.63;6.23;;;;;;;;;;5028467;28;20380;-85
2021/05/03 03:53:50;;;;;;;7.57;5.60;;;;;;;;;;5029080;28;20839;-85
2021/05/03 03:56:18;;;;;;;8.95;6.55;;;;;;;;;;5030010;28;20383;-87
2021/05/03 03:58:47;;;;;;;7.88;6.75;;;;;;;;;;5030213;28;20374;-85
2021/05/03 04:01:13;;;;;;;9.90;6.60;;;;;;;;;;5028735;28;20423;-84
2021/05/03 04:03:46;;;;;;;9.13;6.45;;;;;;;;;;5029100;28;20855;-83
2021/05/03 04:06:20;;;;;;;11.00;6.90;;;;;;;;;;5030273;28;20366;-86
2021/05/03 04:11:26;;;;;;;8.85;6.63;;;;;;;;;;5030631;28;20448;-85
2021/05/03 04:21:05;;;;;;;9.63;6.85;;;;;;;;;;5013879;28;20473;-84
2021/05/03 04:27:39;;;;;;;10.32;6.13;;;;;;;;;;5013923;28;20403;-85
2021/05/03 04:30:10;;;;;;;9.48;6.47;;;;;;;;;;5014189;28;20367;-83
2021/05/03 04:32:36;;;;;;;10.48;6.72;;;;;;;;;;5014268;28;20371;-82
2021/05/03 04:35:02;;;;;;;8.95;6.25;;;;;;;;;;5014083;28;20390;-80
2021/05/03 04:37:28;;;;;;;9.37;6.10;;;;;;;;;;5014000;28;20408;-83
2021/05/03 04:39:54;;;;;;;8.90;6.50;;;;;;;;;;5012353;28;20880;-78
2021/05/03 04:42:20;;;;;;;8.18;6.65;;;;;;;;;;5015500;28;20367;-81
2021/05/03 04:44:46;;;;;;;8.45;5.90;;;;;;;;;;5016652;28;20413;-88
2021/05/03 04:47:12;;;;;;;7.38;6.00;;;;;;;;;;5022482;28;20444;-91
2021/05/03 04:49:38;;;;;;;8.10;6.00;;;;;;;;;;5025197;28;20483;-87
2021/05/03 04:52:04;;;;;;;9.95;6.07;;;;;;;;;;5032298;28;20381;-85
2021/05/03 04:54:30;;;;;;;8.35;6.03;;;;;;;;;;5020753;28;20375;-84
2021/05/03 04:56:56;;;;;;;8.82;6.25;;;;;;;;;;5015724;28;20394;-85
2021/05/03 04:59:22;;;;;;;9.13;5.82;;;;;;;;;;5021307;28;20441;-84
2021/05/03 05:01:48;;;;;;;9.27;5.72;;;;;;;;;;5013371;28;20379;-87
2021/05/03 05:04:14;;;;;;;8.43;6.22;;;;;;;;;;5017306;28;20465;-83
2021/05/03 05:06:40;;;;;;;8.90;5.78;;;;;;;;;;5013304;28;20383;-82
2021/05/03 05:09:07;;;;;;;8.43;5.85;;;;;;;;;;5013146;28;20386;-84
2021/05/03 05:11:34;;;;;;;8.25;6.20;;;;;;;;;;5011767;28;20893;-83
2021/05/03 05:14:00;;;;;;;8.97;5.97;;;;;;;;;;5013466;28;20453;-84
2021/05/03 05:16:26;;;;;;;7.43;6.03;;;;;;;;;;5013241;28;20842;-84
2021/05/03 05:18:52;;;;;;;7.78;5.97;;;;;;;;;;5012557;28;20391;-82
2021/05/03 05:21:18;;;;;;;7.78;5.72;;;;;;;;;;5010164;28;20769;-85
2021/05/03 05:23:44;;;;;;;9.10;6.07;;;;;;;;;;5012164;28;20379;-84
2021/05/03 05:26:10;;;;;;;8.43;6.25;;;;;;;;;;5011549;28;20403;-80
2021/05/03 05:28:37;;;;;;;8.27;6.50;;;;;;;;;;5012294;28;20395;-82
2021/05/03 05:31:03;;;;;;;9.48;6.00;;;;;;;;;;5013758;28;20447;-84
2021/05/03 05:33:29;;;;;;;8.35;5.55;;;;;;;;;;5011548;28;20459;-84
2021/05/03 05:35:56;;;;;;;5.53;4.68;;;;;;;;;;5012588;28;20375;-87
2021/05/03 05:38:22;;;;;;;6.70;4.55;;;;;;;;;;5011211;28;20406;-87
2021/05/03 05:40:48;;;;;;;7.05;5.00;;;;;;;;;;5013277;28;20377;-88
2021/05/03 05:43:14;;;;;;;7.05;4.40;;;;;;;;;;5011300;28;20399;-87
2021/05/03 05:45:40;;;;;;;7.70;4.65;;;;;;;;;;5010701;28;20402;-86
2021/05/03 05:48:06;;;;;;;8.18;5.03;;;;;;;;;;5011483;28;20501;-86
2021/05/03 05:50:32;;;;;;;7.15;4.75;;;;;;;;;;5012211;28;20371;-87
2021/05/03 05:52:58;;;;;;;6.40;4.25;;;;;;;;;;5010841;28;20398;-87
2021/05/03 05:55:25;;;;;;;6.28;4.22;;;;;;;;;;5011086;28;20382;-87
2021/05/03 05:57:51;;;;;;;8.18;4.68;;;;;;;;;;5010405;28;20858;-87
2021/05/03 06:00:17;;;;;;;9.45;4.60;;;;;;;;;;5012309;28;20411;-84
2021/05/03 06:02:43;;;;;;;6.47;4.13;;;;;;;;;;5011261;28;20379;-84
2021/05/03 06:05:10;;;;;;;7.72;4.45;;;;;;;;;;5010544;28;20371;-84
2021/05/03 06:07:36;;;;;;;5.72;3.80;;;;;;;;;;5011431;28;20478;-84
2021/05/03 06:10:02;;;;;;;7.10;3.93;;;;;;;;;;5010382;28;20462;-84
2021/05/03 06:12:28;;;;;;;7.80;4.05;;;;;;;;;;5010882;28;20376;-86
2021/05/03 06:14:54;;;;;;;4.45;3.78;;;;;;;;;;5010926;28;20458;-86
2021/05/03 06:17:20;;;;;;;6.88;4.00;;;;;;;;;;5011650;28;20383;-85
2021/05/03 06:19:46;;;;;;;6.37;3.90;;;;;;;;;;5012315;28;20382;-84
2021/05/03 06:22:14;;;;;;;6.20;3.72;;;;;;;;;;5013369;28;20379;-85
2021/05/03 06:24:41;;;;;;;5.53;4.03;;;;;;;;;;5018399;28;20385;-85
2021/05/03 06:27:08;;;;;;;7.30;4.10;;;;;;;;;;5026499;28;20395;-85
2021/05/03 06:29:34;;;;;;;6.07;4.28;;;;;;;;;;5012109;28;20861;-84
2021/05/03 06:32:00;;;;;;;5.90;4.40;;;;;;;;;;5024659;28;20938;-84
2021/05/03 06:34:31;;;;;;;7.03;4.70;;;;;;;;;;5028786;28;20504;-83
2021/05/03 06:36:57;;;;;;;6.90;4.22;;;;;;;;;;5026093;28;20467;-85
2021/05/03 06:39:23;;;;;;;7.07;4.50;;;;;;;;;;5030292;28;20369;-86
2021/05/03 06:41:49;;;;;;;6.90;4.85;;;;;;;;;;5016533;28;20398;-85
2021/05/03 06:44:16;;;;;;;7.18;4.93;;;;;;;;;;5012819;28;20460;-85
2021/05/03 06:46:42;;;;;;;6.40;4.38;;;;;;;;;;5014727;28;20391;-85
2021/05/03 06:49:09;;;;;;;7.93;4.47;;;;;;;;;;5009990;28;20402;-86
2021/05/03 06:51:35;;;;;;;5.30;4.32;;;;;;;;;;5018197;28;20404;-84
2021/05/03 06:54:01;;;;;;;6.15;4.07;;;;;;;;;;5016728;28;20598;-83
2021/05/03 06:56:28;;;;;;;5.32;4.20;;;;;;;;;;5012209;28;20387;-83
2021/05/03 06:58:54;;;;;;;6.03;4.00;;;;;;;;;;5010800;28;20376;-83
2021/05/03 07:01:21;;;;;;;8.43;4.68;;;;;;;;;;5010638;28;20865;-83
2021/05/03 07:03:48;;;;;;;5.97;3.80;;;;;;;;;;5012206;28;20402;-84
2021/05/03 07:06:14;;;;;;;5.65;3.92;;;;;;;;;;5016073;28;20399;-84
2021/05/03 07:08:41;;;;;;;5.63;4.03;;;;;;;;;;5010834;28;20901;-84
2021/05/03 07:11:16;;;;;;;6.03;3.70;;;;;;;;;;5002264;28;21065;-83
2021/05/03 07:13:42;;;;;;;8.02;4.13;;;;;;;;;;5012139;28;20464;-81
2021/05/03 07:16:08;;;;;;;5.35;3.42;;;;;;;;;;5021954;28;20383;-85
2021/05/03 07:18:34;;;;;;;6.40;3.95;;;;;;;;;;5013642;28;20375;-85
2021/05/03 07:21:01;;;;;;;6.72;3.58;;;;;;;;;;5008702;28;20397;-85
2021/05/03 07:23:27;;;;;;;5.28;3.75;;;;;;;;;;5010236;28;20375;-86
2021/05/03 07:25:53;;;;;;;8.95;3.95;;;;;;;;;;5010526;28;20425;-85
2021/05/03 07:28:19;;;;;;;5.55;3.75;;;;;;;;;;5010624;28;20804;-85
2021/05/03 07:30:45;;;;;;;6.93;3.70;;;;;;;;;;5009807;28;20406;-85
2021/05/03 07:33:11;;;;;;;5.60;3.65;;;;;;;;;;5013401;28;21157;-84
2021/05/03 07:35:37;;;;;;;5.13;3.72;;;;;;;;;;5008871;28;20474;-82
2021/05/03 07:38:03;;;;;;;6.40;3.67;;;;;;;;;;5006096;28;20935;-83
2021/05/03 07:40:29;;;;;;;6.82;3.35;;;;;;;;;;5021634;28;20399;-87
2021/05/03 07:42:56;;;;;;;4.85;3.03;;;;;;;;;;5008911;28;20857;-85
2021/05/03 07:45:22;;;;;;;4.20;3.00;;;;;;;;;;5008692;28;20411;-87
2021/05/03 07:47:48;;;;;;;5.75;3.42;;;;;;;;;;5008755;28;20410;-87
2021/05/03 07:50:14;;;;;;;5.30;2.90;;;;;;;;;;5012728;28;20383;-86
2021/05/03 07:52:40;;;;;;;3.70;2.45;;;;;;;;;;5015635;28;20478;-88
2021/05/03 07:58:09;;;;;;;5.10;2.70;;;;;;;;;;5239115;22;20955;-81
2021/05/03 08:00:35;;;;;;;4.47;2.60;;;;;;;;;;5027887;28;20394;-80
2021/05/03 08:03:02;;;;;;;4.18;2.50;;;;;;;;;;5013376;28;20406;-80
2021/05/03 08:05:28;;;;;;;4.35;2.50;;;;;;;;;;5010652;28;20407;-81
2021/05/03 08:07:54;;;;;;;5.35;2.88;;;;;;;;;;5017747;28;20435;-81
2021/05/03 08:10:20;;;;;;;6.00;2.60;;;;;;;;;;5016832;28;20434;-81
2021/05/03 08:12:46;;;;;;;5.63;2.90;;;;;;;;;;5017784;28;20377;-80
2021/05/03 08:15:13;;;;;;;4.53;2.80;;;;;;;;;;5010772;28;20408;-81
2021/05/03 08:17:43;;;;;;;4.67;2.83;;;;;;;;;;5018524;28;20380;-84
2021/05/03 08:20:09;;;;;;;4.60;2.40;;;;;;;;;;5024253;28;20483;-83
2021/05/03 08:22:35;;;;;;;3.58;2.20;;;;;;;;;;5013133;28;20444;-80
2021/05/03 08:25:01;;;;;;;3.88;1.98;;;;;;;;;;5023522;28;20802;-81
2021/05/03 08:27:27;;;;;;;4.37;2.10;;;;;;;;;;5015133;28;20511;-80
2021/05/03 08:29:53;;;;;;;4.47;2.37;;;;;;;;;;5006831;28;20931;-81
2021/05/03 08:32:19;;;;;;;4.93;1.97;;;;;;;;;;5006791;28;20377;-80
2021/05/03 08:34:45;;;;;;;5.23;1.87;;;;;;;;;;5006777;28;20912;-80
2021/05/03 08:37:12;;;;;;;4.80;2.00;;;;;;;;;;5023606;28;20427;-82
2021/05/03 08:39:38;;;;;;;4.70;2.00;;;;;;;;;;5014713;28;20413;-81
2021/05/03 08:42:07;;;;;;;4.05;2.00;;;;;;;;;;5026325;28;20747;-83
2021/05/03 08:44:33;;;;;;;3.30;2.17;;;;;;;;;;5013491;28;20462;-81
2021/05/03 08:46:59;;;;;;;4.55;2.22;;;;;;;;;;5008806;28;20411;-80
2021/05/03 08:49:45;;;;;;;3.85;1.80;;;;;;;;;;5007243;28;20371;-85
2021/05/03 08:52:17;;;;;;;2.92;1.60;;;;;;;;;;5006224;28;20387;-79
2021/05/03 08:54:44;;;;;;;3.00;1.77;;;;;;;;;;5015325;28;20382;-79
2021/05/03 08:57:12;;;;;;;2.20;1.67;;;;;;;;;;5025438;28;20417;-79
2021/05/03 08:59:39;;;;;;;2.30;1.42;;;;;;;;;;5029793;28;20385;-80
2021/05/03 09:02:06;;;;;;;4.03;2.10;;;;;;;;;;5029836;28;20397;-80
2021/05/03 09:04:32;;;;;;;4.20;1.95;;;;;;;;;;5031236;28;20362;-80
2021/05/03 09:07:13;;;;;;;3.35;1.80;;;;;;;;;;5029900;28;20455;-80
2021/05/03 09:09:41;;;;;;;3.40;1.50;;;;;;;;;;5031857;28;20381;-79
2021/05/03 09:12:08;;;;;;;2.35;1.60;;;;;;;;;;5030413;28;20386;-80
2021/05/03 09:14:34;;;;;;;3.88;1.90;;;;;;;;;;5031208;28;20452;-80
2021/05/03 09:17:01;;;;;;;3.35;1.85;;;;;;;;;;5031139;28;20469;-80
2021/05/03 09:19:27;;;;;;;3.03;1.52;;;;;;;;;;5031203;28;20430;-80
2021/05/03 09:21:54;;;;;;;3.90;1.70;;;;;;;;;;5031037;28;20370;-80
2021/05/03 09:24:28;;;;;;;2.88;1.50;;;;;;;;;;5029668;28;20382;-80
2021/05/03 09:27:04;;;;;;;4.70;1.60;;;;;;;;;;5029756;28;20400;-80
2021/05/03 09:29:38;;;;;;;3.30;1.70;;;;;;;;;;5030374;28;20469;-80
2021/05/03 09:32:05;;;;;;;2.88;1.60;;;;;;;;;;5030713;28;20743;-80
2021/05/03 09:34:39;;;;;;;5.38;2.13;;;;;;;;;;5030753;28;20365;-80
2021/05/03 09:37:16;;;;;;;5.80;2.03;;;;;;;;;;5030509;28;20366;-80
2021/05/03 09:39:42;;;;;;;5.30;1.77;;;;;;;;;;5031018;28;20380;-80
2021/05/03 09:42:08;;;;;;;2.85;1.80;;;;;;;;;;5030452;28;20873;-80
2021/05/03 09:44:34;;;;;;;2.75;1.75;;;;;;;;;;5028118;28;20727;-80
2021/05/03 09:47:00;;;;;;;3.35;1.95;;;;;;;;;;5029801;28;20401;-80
2021/05/03 09:49:26;;;;;;;3.60;1.80;;;;;;;;;;5028453;28;20449;-80
2021/05/03 09:51:53;;;;;;;3.42;1.95;;;;;;;;;;5027153;28;20472;-80
2021/05/03 09:54:27;;;;;;;2.60;1.90;;;;;;;;;;5028466;28;20366;-80
2021/05/03 09:57:03;;;;;;;1.95;1.50;;;;;;;;;;5026709;28;20476;-81
2021/05/03 09:59:32;;;;;;;3.38;1.70;;;;;;;;;;5029019;28;20468;-82
2021/05/03 10:02:05;;;;;;;2.20;1.50;;;;;;;;;;5014883;28;20413;-83
2021/05/03 10:04:33;;;;;;;3.78;1.73;;;;;;;;;;5016701;28;20430;-82
2021/05/03 10:06:59;;;;;;;3.63;1.80;;;;;;;;;;5037572;28;20385;-82
2021/05/03 10:09:26;;;;;;;4.93;1.77;;;;;;;;;;5016184;28;20371;-82
2021/05/03 10:11:52;;;;;;;2.75;1.60;;;;;;;;;;5018100;28;20480;-82
2021/05/03 10:14:20;;;;;;;3.40;1.55;;;;;;;;;;5019179;28;20439;-82
2021/05/03 10:16:47;;;;;;;2.42;1.70;;;;;;;;;;5017742;28;20415;-82
2021/05/03 10:19:16;;;;;;;3.00;1.80;;;;;;;;;;5019814;28;20385;-82
2021/05/03 10:21:45;;;;;;;3.00;1.60;;;;;;;;;;5018544;28;20423;-81
2021/05/03 10:24:15;;;;;;;1.63;1.52;;;;;;;;;;5021043;28;20405;-82
2021/05/03 10:26:44;;;;;;;2.60;1.60;;;;;;;;;;5019702;28;20381;-82
2021/05/03 10:29:24;;;;;;;3.38;1.60;;;;;;;;;;5019443;28;20387;-83
2021/05/03 10:32:03;;;;;;;1.75;1.35;;;;;;;;;;5017009;28;20375;-82
2021/05/03 10:34:35;;;;;;;5.57;1.50;;;;;;;;;;5018628;28;20759;-82
2021/05/03 10:37:01;;;;;;;5.93;1.63;;;;;;;;;;5016135;28;20381;-83
2021/05/03 10:39:28;;;;;;;2.23;1.40;;;;;;;;;;5019266;28;20881;-82
2021/05/03 10:42:06;;;;;;;3.17;1.40;;;;;;;;;;5018753;28;20860;-82
2021/05/03 10:44:32;;;;;;;5.10;1.93;;;;;;;;;;5018234;28;20869;-82
2021/05/03 10:47:04;;;;;;;3.53;1.90;;;;;;;;;;5017424;28;21071;-82
2021/05/03 10:49:37;;;;;;;4.88;2.20;;;;;;;;;;5016187;28;20926;-82
2021/05/03 10:52:08;;;;;;;2.03;1.48;;;;;;;;;;5019688;28;20397;-82
2021/05/03 10:54:45;;;;;;;1.58;1.48;;;;;;;;;;5018947;28;20504;-82
2021/05/03 10:57:17;;;;;;;2.33;1.50;;;;;;;;;;5017041;28;20499;-82
2021/05/03 10:59:52;;;;;;;1.85;1.40;;;;;;;;;;5015565;28;20398;-83
2021/05/03 11:02:18;;;;;;;2.25;1.30;;;;;;;;;;5018381;28;20387;-85
2021/05/03 11:05:03;;;;;;;2.63;1.73;;;;;;;;;;5017237;28;20388;-86
2021/05/03 11:07:29;;;;;;;2.67;1.38;;;;;;;;;;5017292;28;20406;-86
2021/05/03 11:09:55;;;;;;;3.20;1.50;;;;;;;;;;5016406;28;20390;-85
2021/05/03 11:12:29;;;;;;;3.78;1.60;;;;;;;;;;5023925;28;20386;-85
2021/05/03 11:15:09;;;;;;;2.58;1.55;;;;;;;;;;5029555;28;20402;-85
2021/05/03 11:17:36;;;;;;;3.55;1.60;;;;;;;;;;5033956;28;20475;-87
2021/05/03 11:20:14;;;;;;;3.40;1.58;;;;;;;;;;5033133;28;21089;-84
2021/05/03 11:22:45;;;;;;;3.90;1.67;;;;;;;;;;5034699;28;21079;-87
2021/05/03 11:25:18;;;;;;;4.32;1.88;;;;;;;;;;5038373;28;20391;-85
2021/05/03 11:27:51;;;;;;;2.17;1.60;;;;;;;;;;5036057;28;20422;-88
2021/05/03 11:30:42;;;;;;;2.30;1.40;;;;;;;;;;5036446;28;21356;-91
2021/05/03 11:33:22;;;;;;;2.72;1.38;;;;;;;;;;5033762;28;20384;-85
2021/05/03 11:36:02;;;;;;;1.63;1.20;;;;;;;;;;5034400;28;20399;-85
2021/05/03 11:38:44;;;;;;;3.00;1.45;;;;;;;;;;5033673;28;20392;-86
2021/05/03 11:46:10;;;;;;;3.47;1.40;;;;;;;;;;5027781;28;20403;-87
2021/05/03 11:48:37;;;;;;;3.03;1.30;;;;;;;;;;5030594;28;20961;-87
2021/05/03 11:51:04;;;;;;;1.98;1.40;;;;;;;;;;5033845;28;20449;-85
2021/05/03 11:53:42;;;;;;;4.72;1.60;;;;;;;;;;5033805;28;20392;-84
2021/05/03 11:56:36;;;;;;;2.05;1.33;;;;;;;;;;5033772;28;20396;-86
2021/05/03 11:59:03;;;;;;;4.53;1.45;;;;;;;;;;5033773;28;20873;-89
2021/05/03 12:01:29;;;;;;;3.47;1.60;;;;;;;;;;5039571;28;20486;-85
2021/05/03 12:03:59;;;;;;;4.38;1.90;;;;;;;;;;5047061;28;20865;-83
2021/05/03 12:06:34;;;;;;;4.10;2.27;;;;;;;;;;5035990;28;20393;-85
2021/05/03 12:09:04;;;;;;;2.33;1.60;;;;;;;;;;5026505;28;20823;-84
2021/05/03 12:11:30;;;;;;;4.07;1.70;;;;;;;;;;5024616;28;20381;-83
2021/05/03 12:13:57;;;;;;;3.83;1.75;;;;;;;;;;5020488;28;20455;-83
2021/05/03 12:16:37;;;;;;;4.22;1.63;;;;;;;;;;5018556;28;20373;-82
2021/05/03 12:19:14;;;;;;;4.05;1.85;;;;;;;;;;5016252;28;20852;-84
2021/05/03 12:21:41;;;;;;;3.58;1.67;;;;;;;;;;5015968;28;20423;-86
2021/05/03 12:24:17;;;;;;;3.97;2.10;;;;;;;;;;5017870;28;21646;-83
2021/05/03 12:26:57;;;;;;;5.65;2.10;;;;;;;;;;5016099;28;20405;-84
2021/05/03 12:29:23;;;;;;;5.15;2.03;;;;;;;;;;5019654;28;20401;-86
2021/05/03 12:31:50;;;;;;;6.73;2.13;;;;;;;;;;5015997;28;20474;-82
2021/05/03 12:34:21;;;;;;;7.53;2.20;;;;;;;;;;5018978;28;20389;-84
2021/05/03 12:37:26;;;;;;;6.25;2.58;;;;;;;;;;5020510;28;20386;-87
2021/05/03 12:39:55;;;;;;;4.28;2.25;;;;;;;;;;4962342;28;20378;-86
2021/05/03 12:42:22;;;;;;;3.85;2.30;;;;;;;;;;4976231;28;20391;-86
2021/05/03 12:44:54;;;;;;;3.85;2.22;;;;;;;;;;4996825;28;20379;-84
2021/05/03 12:47:30;;;;;;;4.70;2.40;;;;;;;;;;5021446;28;21185;-86
2021/05/03 12:50:02;;;;;;;2.50;2.08;;;;;;;;;;5020725;28;20390;-86
2021/05/03 12:52:38;;;;;;;4.22;2.47;;;;;;;;;;5021885;28;20383;-83
2021/05/03 12:55:20;;;;;;;4.63;2.80;;;;;;;;;;5019524;28;20593;-83
2021/05/03 12:57:57;;;;;;;4.78;2.80;;;;;;;;;;5021935;28;20476;-84
2021/05/03 13:00:27;;;;;;;3.88;2.80;;;;;;;;;;5020278;28;20968;-86
2021/05/03 13:03:14;;;;;;;3.33;2.72;;;;;;;;;;5018420;28;20472;-87
2021/05/03 13:05:46;;;;;;;4.20;2.80;;;;;;;;;;5029014;28;20496;-83
2021/05/03 13:08:31;;;;;;;4.20;2.88;;;;;;;;;;5020142;28;20592;-87
2021/05/03 13:11:27;;;;;;;4.50;2.97;;;;;;;;;;5020762;28;20432;-84
2021/05/03 13:25:30;;;;;;;5.70;4.90;;;;;;;;;;5017695;28;20558;-83
2021/05/03 13:28:06;;;;;;;5.70;5.13;;;;;;;;;;5015325;28;20434;-84
2021/05/03 13:30:33;;;;;;;5.47;5.00;;;;;;;;;;5025568;28;20390;-84
2021/05/03 13:33:00;;;;;;;6.38;5.78;;;;;;;;;;5030084;28;20376;-86
2021/05/03 13:35:26;;;;;;;6.37;5.70;;;;;;;;;;5022829;28;20407;-86
2021/05/03 13:37:52;;;;;;;6.75;5.72;;;;;;;;;;5016514;28;20792;-86
2021/05/03 13:40:20;;;;;;;6.63;6.03;;;;;;;;;;5011082;28;20406;-85
2021/05/03 13:42:49;;;;;;;7.20;6.35;;;;;;;;;;5010392;28;20803;-84
2021/05/03 13:45:16;;;;;;;6.57;5.95;;;;;;;;;;5009175;28;20795;-84
2021/05/03 13:47:42;;;;;;;6.30;5.80;;;;;;;;;;5009153;28;20411;-83
2021/05/03 13:50:09;;;;;;;7.00;6.18;;;;;;;;;;5011276;28;20382;-84
2021/05/03 13:52:35;;;;;;;6.22;5.63;;;;;;;;;;5010092;28;20391;-86
2021/05/03 13:55:01;;;;;;;5.85;5.35;;;;;;;;;;5010484;28;20379;-85
2021/05/03 13:57:27;;;;;;;6.72;6.03;;;;;;;;;;5010132;28;20465;-86
2021/05/03 13:59:53;;;;;;;6.15;5.55;;;;;;;;;;5011579;28;20419;-86
2021/05/03 14:02:19;;;;;;;6.30;5.70;;;;;;;;;;5009981;28;20414;-88
2021/05/03 14:04:45;;;;;;;6.28;5.03;;;;;;;;;;5011641;28;20374;-86
2021/05/03 14:07:11;;;;;;;5.90;5.32;;;;;;;;;;5009914;28;20880;-87
2021/05/03 14:09:37;;;;;;;5.50;5.00;;;;;;;;;;5011870;28;20740;-85
2021/05/03 14:12:03;;;;;;;5.85;5.25;;;;;;;;;;5027849;28;20378;-86
2021/05/03 14:14:32;;;;;;;6.40;5.80;;;;;;;;;;5030733;28;20387;-87
2021/05/03 14:17:01;;;;;;;7.47;5.65;;;;;;;;;;5029689;28;20827;-88
2021/05/03 14:19:31;;;;;;;6.60;5.70;;;;;;;;;;5024185;28;20381;-86
2021/05/03 14:21:57;;;;;;;6.18;5.57;;;;;;;;;;5029022;28;20385;-84
2021/05/03 14:24:23;;;;;;;6.20;5.60;;;;;;;;;;5030623;28;20870;-88
2021/05/03 14:26:49;;;;;;;5.85;5.20;;;;;;;;;;5014619;28;20379;-89
2021/05/03 14:29:32;;;;;;;5.78;5.18;;;;;;;;;;5026093;28;20408;-85
2021/05/03 14:32:01;;;;;;;5.95;5.22;;;;;;;;;;5028196;28;20387;-89
2021/05/03 14:34:33;;;;;;;6.28;5.47;;;;;;;;;;5028544;28;21201;-86
2021/05/03 14:36:59;;;;;;;6.57;5.57;;;;;;;;;;5027408;28;20389;-85
2021/05/03 14:39:25;;;;;;;6.45;5.22;;;;;;;;;;5027255;28;20408;-90
2021/05/03 14:41:52;;;;;;;6.30;5.50;;;;;;;;;;5029888;28;20504;-87
2021/05/03 14:44:18;;;;;;;5.88;5.38;;;;;;;;;;5030475;28;20366;-87
2021/05/03 14:52:00;;;;;;;6.03;5.37;;;;;;;;;;5030469;28;20384;-86
2021/05/03 14:56:56;;;;;;;5.78;5.28;;;;;;;;;;5029388;28;20399;-87
2021/05/03 14:59:22;;;;;;;7.43;5.73;;;;;;;;;;5028640;28;20416;-85
2021/05/03 15:01:48;;;;;;;5.83;5.23;;;;;;;;;;5029671;28;20434;-85
2021/05/03 15:04:14;;;;;;;6.73;5.23;;;;;;;;;;5029649;28;20374;-85
2021/05/03 15:06:42;;;;;;;6.47;5.80;;;;;;;;;;5027800;28;20867;-84
2021/05/03 15:09:14;;;;;;;7.03;5.95;;;;;;;;;;5027781;28;20412;-90
2021/05/03 15:11:44;;;;;;;7.65;6.45;;;;;;;;;;5029677;28;20399;-88
2021/05/03 15:14:14;;;;;;;7.03;6.30;;;;;;;;;;5028764;28;20467;-87
2021/05/03 15:16:49;;;;;;;7.05;6.35;;;;;;;;;;5028731;28;20373;-89
2021/05/03 15:19:26;;;;;;;7.35;6.57;;;;;;;;;;5028625;28;20392;-89
2021/05/03 15:21:52;;;;;;;6.72;6.05;;;;;;;;;;5027669;28;20389;-87
2021/05/03 15:24:18;;;;;;;6.60;6.00;;;;;;;;;;5028878;28;20393;-88
2021/05/03 15:26:51;;;;;;;6.45;5.80;;;;;;;;;;5028672;28;20896;-87
2021/05/03 15:29:31;;;;;;;7.40;5.97;;;;;;;;;;5029414;28;20915;-87
2021/05/03 15:34:42;;;;;;;6.13;5.53;;;;;;;;;;5029540;28;20393;-88